Time;durP1;ratioP1;P1;durP2;ratioP2;P2;SDS_P1;SDS_P2;PMS_P1;PMS_P2;Temp;Humidity;BMP_temperature;BMP_pressure;BME280_temperature;BME280_humidity;BME280_pressure;Samples;Min_cycle;Max_cycle;Signal;HPM_P1;HPM_P2
2022/09/25 00:01:11;;;;;;;15.10;3.33;;;11.10;99.90;;;;;;5135414;27;20062;-68
2022/09/25 00:03:37;;;;;;;13.15;3.38;;;11.00;99.90;;;;;;5154428;27;20479;-68
2022/09/25 00:06:08;;;;;;;8.98;3.20;;;11.60;99.90;;;;;;5154284;27;20100;-68
2022/09/25 00:08:35;;;;;;;13.10;3.28;;;11.00;99.90;;;;;;5148968;27;20050;-69
2022/09/25 00:11:12;;;;;;;9.88;3.30;;;10.90;99.90;;;;;;5153823;27;20475;-69
2022/09/25 00:13:39;;;;;;;8.85;3.20;;;10.90;99.90;;;;;;5154545;27;20046;-68
2022/09/25 00:16:08;;;;;;;7.60;3.30;;;10.90;99.90;;;;;;5154071;27;20081;-68
2022/09/25 00:21:18;;;;;;;10.70;3.55;;;11.00;99.90;;;;;;5153189;27;20440;-69
2022/09/25 00:23:45;;;;;;;9.23;3.50;;;10.90;99.90;;;;;;5135193;27;20039;-68
2022/09/25 00:26:14;;;;;;;11.20;3.47;;;10.80;99.90;;;;;;5153907;27;20109;-68
2022/09/25 00:28:42;;;;;;;11.88;3.50;;;10.80;99.90;;;;;;5153532;27;20105;-68
2022/09/25 00:31:09;;;;;;;8.27;3.60;;;10.80;99.90;;;;;;5153541;27;20042;-69
2022/09/25 00:33:35;;;;;;;8.90;3.40;;;10.80;99.90;;;;;;5153425;27;20558;-68
2022/09/25 00:36:10;;;;;;;7.40;3.30;;;10.70;99.90;;;;;;5153902;27;20078;-68
2022/09/25 00:38:37;;;;;;;11.48;3.45;;;10.70;99.90;;;;;;5153392;27;20115;-69
2022/09/25 00:41:05;;;;;;;9.23;3.05;;;10.60;99.90;;;;;;5134939;27;20054;-68
2022/09/25 00:43:43;;;;;;;12.77;3.60;;;10.60;99.90;;;;;;5153563;27;20183;-68
2022/09/25 00:46:14;;;;;;;7.47;3.10;;;10.60;99.90;;;;;;5153561;27;20422;-68
2022/09/25 00:49:11;;;;;;;9.93;3.50;;;10.60;99.90;;;;;;5153719;27;20050;-68
2022/09/25 00:51:56;;;;;;;9.38;3.13;;;10.60;99.90;;;;;;5130266;27;20053;-68
2022/09/25 00:54:26;;;;;;;9.90;3.70;;;10.70;99.90;;;;;;5135219;27;20142;-69
2022/09/25 00:56:54;;;;;;;9.75;4.25;;;10.50;99.90;;;;;;5154473;27;20058;-68
2022/09/25 00:59:28;;;;;;;10.27;3.80;;;10.50;99.90;;;;;;5156862;27;20159;-68
2022/09/25 01:01:54;;;;;;;10.45;3.75;;;10.50;99.90;;;;;;5137713;27;20088;-68
2022/09/25 01:04:22;;;;;;;10.48;3.80;;;10.50;99.90;;;;;;5158023;27;20038;-68
2022/09/25 01:06:48;;;;;;;9.27;3.80;;;10.40;99.90;;;;;;5157066;27;20047;-69
2022/09/25 01:09:14;;;;;;;7.15;3.40;;;10.40;99.90;;;;;;5157648;27;20105;-68
2022/09/25 01:11:40;;;;;;;12.98;4.35;;;10.40;99.90;;;;;;5157545;27;20049;-68
2022/09/25 01:14:07;;;;;;;8.38;3.70;;;10.40;99.90;;;;;;5157810;27;20038;-68
2022/09/25 01:16:36;;;;;;;10.55;4.10;;;10.40;99.90;;;;;;5139128;27;20462;-68
2022/09/25 01:19:21;;;;;;;9.18;4.00;;;10.40;99.90;;;;;;5157969;27;20113;-68
2022/09/25 01:21:57;;;;;;;10.20;4.43;;;10.30;99.90;;;;;;5138814;27;20047;-68
2022/09/25 01:24:43;;;;;;;12.68;4.63;;;10.30;99.90;;;;;;5156823;27;20055;-68
2022/09/25 01:27:33;;;;;;;11.50;4.10;;;10.30;99.90;;;;;;5144518;27;20053;-69
2022/09/25 01:30:14;;;;;;;13.77;4.20;;;10.30;99.90;;;;;;5157618;27;20049;-68
2022/09/25 01:33:08;;;;;;;12.20;4.63;;;10.50;99.90;;;;;;5138203;27;20109;-68
2022/09/25 01:35:48;;;;;;;12.32;4.43;;;10.30;99.90;;;;;;5157030;27;20093;-68
2022/09/25 01:38:30;;;;;;;7.95;3.83;;;10.40;99.90;;;;;;5138361;27;20055;-68
2022/09/25 01:41:06;;;;;;;9.32;3.55;;;10.50;99.90;;;;;;5156920;27;20049;-68
2022/09/25 01:43:59;;;;;;;9.27;3.85;;;10.30;99.90;;;;;;5138668;27;20133;-69
2022/09/25 01:46:33;;;;;;;8.80;3.90;;;10.30;99.90;;;;;;5156709;27;20091;-69
2022/09/25 01:49:05;;;;;;;10.63;4.28;;;10.60;99.90;;;;;;5157065;27;20043;-68
2022/09/25 01:51:42;;;;;;;11.25;4.55;;;10.20;99.90;;;;;;5156473;27;20046;-68
2022/09/25 01:54:13;;;;;;;10.93;3.63;;;10.20;99.90;;;;;;5156488;27;20413;-68
2022/09/25 01:56:52;;;;;;;9.60;3.45;;;10.20;99.90;;;;;;5156158;27;20065;-68
2022/09/25 01:59:33;;;;;;;12.73;3.42;;;10.10;99.90;;;;;;5138254;27;20049;-68
2022/09/25 02:02:02;;;;;;;9.98;2.90;;;10.10;99.90;;;;;;5156312;27;20042;-69
2022/09/25 02:04:33;;;;;;;12.35;3.17;;;10.10;99.90;;;;;;5156534;27;20084;-69
2022/09/25 02:07:03;;;;;;;7.82;2.80;;;10.10;99.90;;;;;;5138029;27;20456;-68
2022/09/25 02:09:33;;;;;;;10.00;2.92;;;10.10;99.90;;;;;;5153442;27;20070;-68
2022/09/25 02:12:05;;;;;;;5.65;2.22;;;10.10;99.90;;;;;;5155903;27;20042;-69
2022/09/25 02:14:38;;;;;;;9.02;3.13;;;10.60;99.90;;;;;;5156355;27;20046;-69
2022/09/25 02:17:09;;;;;;;11.25;3.60;;;10.80;99.90;;;;;;5145287;27;20046;-68
2022/09/25 02:22:29;;;;;;;9.90;3.38;;;10.10;99.90;;;;;;5156175;27;20074;-68
2022/09/25 02:25:17;;;;;;;9.32;3.40;;;10.10;99.90;;;;;;5156050;27;20060;-68
2022/09/25 02:27:42;;;;;;;7.97;3.08;;;10.50;99.90;;;;;;5156128;27;20035;-68
2022/09/25 02:30:10;;;;;;;10.90;3.47;;;10.20;99.90;;;;;;5156570;27;20083;-68
2022/09/25 02:32:36;;;;;;;10.38;3.10;;;10.20;99.90;;;;;;5137330;27;20045;-69
2022/09/25 02:35:02;;;;;;;11.52;3.25;;;10.20;99.90;;;;;;5155959;27;20043;-68
2022/09/25 02:37:28;;;;;;;9.32;3.75;;;10.20;99.90;;;;;;5156147;27;20404;-68
2022/09/25 02:39:59;;;;;;;8.45;3.28;;;10.30;99.90;;;;;;5137370;27;20047;-69
2022/09/25 02:42:41;;;;;;;11.23;4.07;;;10.10;99.90;;;;;;5137195;27;20087;-68
2022/09/25 02:45:35;;;;;;;7.55;3.30;;;10.10;99.90;;;;;;5155504;27;20038;-68
2022/09/25 02:48:07;;;;;;;10.43;3.20;;;10.10;99.90;;;;;;5155749;27;20043;-68
2022/09/25 02:50:35;;;;;;;10.68;3.28;;;10.10;99.90;;;;;;5135719;27;20053;-68
2022/09/25 02:53:26;;;;;;;8.77;2.83;;;10.10;99.90;;;;;;5136928;27;20030;-68
2022/09/25 02:55:58;;;;;;;9.50;3.60;;;10.10;99.90;;;;;;5139719;27;20038;-68
2022/09/25 02:58:35;;;;;;;9.43;2.88;;;10.00;99.90;;;;;;5155459;27;20387;-68
2022/09/25 03:01:05;;;;;;;9.63;3.00;;;10.00;99.90;;;;;;5155188;27;20364;-68
2022/09/25 03:03:32;;;;;;;14.10;3.08;;;10.00;99.90;;;;;;5155816;27;20369;-68
2022/09/25 03:05:59;;;;;;;10.70;2.95;;;10.00;99.90;;;;;;5155339;27;20053;-68
2022/09/25 03:08:39;;;;;;;14.60;3.30;;;10.00;99.90;;;;;;5154338;27;20081;-68
2022/09/25 03:11:10;;;;;;;9.82;3.25;;;10.00;99.90;;;;;;5136343;27;20042;-68
2022/09/25 03:13:36;;;;;;;8.32;3.20;;;10.00;99.90;;;;;;5155459;27;20035;-68
2022/09/25 03:16:05;;;;;;;6.80;3.05;;;10.00;99.90;;;;;;5154915;27;20043;-68
2022/09/25 03:18:30;;;;;;;8.70;2.53;;;10.10;99.90;;;;;;5155545;27;20328;-69
2022/09/25 03:20:57;;;;;;;7.47;2.90;;;9.90;99.90;;;;;;5153984;27;20051;-69
2022/09/25 03:23:23;;;;;;;10.48;2.95;;;10.30;99.90;;;;;;5155140;27;20406;-68
2022/09/25 03:25:51;;;;;;;11.40;2.88;;;9.90;99.90;;;;;;5148114;27;20039;-68
2022/09/25 03:28:17;;;;;;;11.07;2.72;;;9.90;99.90;;;;;;5147947;27;20066;-68
2022/09/25 03:30:43;;;;;;;10.15;3.28;;;9.90;99.90;;;;;;5135754;27;20089;-68
2022/09/25 03:33:12;;;;;;;14.05;3.20;;;9.90;99.90;;;;;;5153651;27;20039;-68
2022/09/25 03:35:38;;;;;;;10.60;2.65;;;9.90;99.90;;;;;;5154706;27;20047;-68
2022/09/25 03:38:09;;;;;;;7.07;3.10;;;10.00;99.90;;;;;;5136070;27;20179;-68
2022/09/25 03:40:35;;;;;;;8.23;2.90;;;9.90;99.90;;;;;;5154249;27;20471;-68
2022/09/25 03:43:01;;;;;;;9.68;3.00;;;9.90;99.90;;;;;;5134601;27;20237;-68
2022/09/25 03:45:26;;;;;;;9.57;3.17;;;9.90;99.90;;;;;;5154070;27;20034;-68
2022/09/25 03:47:52;;;;;;;9.48;2.88;;;9.80;99.90;;;;;;5154859;27;20043;-68
2022/09/25 03:50:18;;;;;;;8.55;3.00;;;9.80;99.90;;;;;;5154396;27;20034;-68
2022/09/25 03:52:43;;;;;;;9.23;2.80;;;9.80;99.90;;;;;;5154102;27;20038;-68
2022/09/25 03:55:10;;;;;;;10.05;3.08;;;9.80;99.90;;;;;;5135668;27;20030;-69
2022/09/25 03:57:37;;;;;;;7.18;3.05;;;9.80;99.90;;;;;;5153976;27;20070;-68
2022/09/25 04:00:04;;;;;;;12.10;2.95;;;10.00;99.90;;;;;;5136012;27;20053;-68
2022/09/25 04:02:30;;;;;;;8.82;2.75;;;9.80;99.90;;;;;;5135822;27;20054;-68
2022/09/25 04:04:56;;;;;;;8.13;2.80;;;9.80;99.90;;;;;;5154368;27;20038;-69
2022/09/25 04:07:23;;;;;;;9.48;2.63;;;9.80;99.90;;;;;;5154235;27;20065;-69
2022/09/25 04:09:49;;;;;;;9.55;3.10;;;9.70;99.90;;;;;;5138780;27;20047;-68
2022/09/25 04:12:15;;;;;;;10.63;2.60;;;9.70;99.90;;;;;;5153694;27;20043;-68
2022/09/25 04:14:45;;;;;;;6.40;2.70;;;9.60;99.90;;;;;;5135351;27;20051;-69
2022/09/25 04:17:11;;;;;;;9.10;2.58;;;9.70;99.90;;;;;;5153379;27;20039;-69
2022/09/25 04:19:37;;;;;;;6.82;2.65;;;10.10;99.90;;;;;;5138867;27;20039;-68
2022/09/25 04:22:02;;;;;;;11.82;3.35;;;10.50;99.90;;;;;;5151975;27;20054;-68
2022/09/25 04:27:13;;;;;;;6.43;3.30;;;9.60;99.90;;;;;;5153824;27;20495;-68
2022/09/25 04:29:39;;;;;;;8.75;2.60;;;9.60;99.90;;;;;;5135348;27;20049;-68
2022/09/25 04:34:49;;;;;;;6.78;2.40;;;9.60;99.90;;;;;;5135184;27;20134;-69
2022/09/25 04:37:15;;;;;;;7.20;2.70;;;9.50;99.90;;;;;;5153032;27;20192;-68
2022/09/25 04:39:40;;;;;;;6.60;2.70;;;10.30;99.90;;;;;;5153134;27;20050;-68
2022/09/25 04:42:06;;;;;;;9.32;2.85;;;9.50;99.90;;;;;;5169574;27;20038;-69
2022/09/25 04:44:31;;;;;;;10.52;2.70;;;9.50;99.90;;;;;;5154012;27;20046;-68
2022/09/25 04:46:57;;;;;;;5.13;2.47;;;9.50;99.90;;;;;;5135015;27;20130;-69
2022/09/25 04:49:23;;;;;;;7.78;2.90;;;9.50;99.90;;;;;;5154253;27;20049;-68
2022/09/25 04:51:48;;;;;;;7.97;2.95;;;9.60;99.90;;;;;;5149785;27;20074;-69
2022/09/25 04:54:15;;;;;;;11.02;2.95;;;9.50;99.90;;;;;;5153450;27;20471;-68
2022/09/25 04:56:43;;;;;;;8.70;2.75;;;9.50;99.90;;;;;;5153055;27;20126;-68
2022/09/25 04:59:15;;;;;;;7.18;2.80;;;9.60;99.90;;;;;;5153580;27;20035;-68
2022/09/25 05:01:41;;;;;;;9.77;2.78;;;9.50;99.90;;;;;;5153375;27;20043;-68
2022/09/25 05:04:06;;;;;;;9.55;2.40;;;9.50;99.90;;;;;;5154049;27;20042;-69
2022/09/25 05:06:32;;;;;;;10.60;3.03;;;9.50;99.90;;;;;;5153803;27;20558;-69
2022/09/25 05:08:58;;;;;;;12.27;3.08;;;10.00;99.90;;;;;;5153406;27;20039;-68
2022/09/25 05:11:24;;;;;;;8.35;3.17;;;9.50;99.90;;;;;;5151495;27;20042;-68
2022/09/25 05:13:52;;;;;;;9.02;2.65;;;9.50;99.90;;;;;;5135045;27;20475;-68
2022/09/25 05:16:18;;;;;;;8.70;2.85;;;9.50;99.90;;;;;;5152883;27;20533;-68
2022/09/25 05:18:44;;;;;;;11.55;3.03;;;9.50;99.90;;;;;;5133588;27;20042;-69
2022/09/25 05:21:10;;;;;;;10.77;2.75;;;9.50;99.90;;;;;;5152431;27;20051;-68
2022/09/25 05:23:36;;;;;;;7.15;2.42;;;9.50;99.90;;;;;;5134686;27;20371;-68
2022/09/25 05:26:02;;;;;;;5.35;3.10;;;9.40;99.90;;;;;;5144497;27;20047;-69
2022/09/25 05:28:31;;;;;;;8.77;2.53;;;9.50;99.90;;;;;;5139756;27;20041;-69
2022/09/25 05:31:02;;;;;;;11.88;3.40;;;9.40;99.90;;;;;;5134763;27;20047;-69
2022/09/25 05:33:29;;;;;;;6.63;2.95;;;9.40;99.90;;;;;;5153251;27;20117;-68
2022/09/25 05:35:54;;;;;;;8.65;3.08;;;9.40;99.90;;;;;;5117435;27;20137;-68
2022/09/25 05:38:20;;;;;;;7.75;3.03;;;9.30;99.90;;;;;;5153213;27;20098;-68
2022/09/25 05:40:46;;;;;;;8.48;2.67;;;9.50;99.90;;;;;;5134353;27;20095;-69
2022/09/25 05:43:12;;;;;;;8.20;2.90;;;9.70;99.90;;;;;;5154889;27;20046;-68
2022/09/25 05:45:37;;;;;;;9.32;3.20;;;9.40;99.90;;;;;;5157030;27;20491;-69
2022/09/25 05:48:05;;;;;;;11.40;3.13;;;9.50;99.90;;;;;;5156975;27;20046;-69
2022/09/25 05:50:31;;;;;;;7.32;2.85;;;9.40;99.90;;;;;;5156894;27;20494;-68
2022/09/25 05:52:59;;;;;;;8.65;3.33;;;9.40;99.90;;;;;;5137981;27;20380;-68
2022/09/25 05:55:25;;;;;;;8.30;3.10;;;9.40;99.90;;;;;;5156398;27;20122;-68
2022/09/25 05:57:51;;;;;;;5.82;2.80;;;9.50;99.90;;;;;;5156871;27;20078;-68
2022/09/25 06:00:17;;;;;;;7.15;3.05;;;9.40;99.90;;;;;;5156243;27;20097;-69
2022/09/25 06:02:43;;;;;;;8.35;3.33;;;9.40;99.90;;;;;;5155678;27;20078;-68
2022/09/25 06:05:09;;;;;;;9.02;3.65;;;9.80;99.90;;;;;;5156732;27;20075;-68
2022/09/25 06:07:35;;;;;;;8.75;3.67;;;9.40;99.90;;;;;;5155867;27;20443;-68
2022/09/25 06:10:02;;;;;;;7.35;3.17;;;10.20;99.90;;;;;;5144175;27;20042;-69
2022/09/25 06:12:31;;;;;;;8.70;3.10;;;9.50;99.90;;;;;;5138009;27;20050;-68
2022/09/25 06:14:57;;;;;;;11.85;3.92;;;9.40;99.90;;;;;;5156494;27;20049;-69
2022/09/25 06:17:22;;;;;;;9.32;3.05;;;9.50;99.90;;;;;;5137630;27;20038;-69
2022/09/25 06:19:48;;;;;;;9.07;2.92;;;9.50;99.90;;;;;;5156821;27;20497;-68
2022/09/25 06:22:14;;;;;;;9.85;3.20;;;9.60;99.90;;;;;;5137341;27;20046;-68
2022/09/25 06:24:40;;;;;;;9.57;2.55;;;9.60;99.90;;;;;;5156309;27;20039;-68
2022/09/25 06:27:06;;;;;;;11.05;2.80;;;9.60;99.90;;;;;;5156183;27;20049;-68
2022/09/25 06:29:32;;;;;;;7.60;2.92;;;9.60;99.90;;;;;;5119038;27;20046;-69
2022/09/25 06:31:57;;;;;;;8.18;3.08;;;9.70;99.90;;;;;;5147739;27;20522;-68
2022/09/25 06:34:23;;;;;;;5.97;2.55;;;9.70;99.90;;;;;;5136188;27;20514;-68
2022/09/25 06:36:49;;;;;;;8.55;2.55;;;10.10;99.90;;;;;;5152387;27;20034;-68
2022/09/25 06:39:14;;;;;;;6.43;2.72;;;10.50;99.90;;;;;;5156137;27;20046;-69
2022/09/25 06:41:40;;;;;;;12.63;4.10;;;10.50;99.90;;;;;;5155363;27;20544;-69
2022/09/25 06:44:07;;;;;;;10.07;4.15;;;12.20;99.90;;;;;;5155949;27;20064;-69
2022/09/25 06:46:34;;;;;;;9.90;3.15;;;12.50;99.90;;;;;;5156064;27;20486;-69
2022/09/25 06:49:00;;;;;;;6.15;2.60;;;14.30;99.90;;;;;;5156430;27;20035;-69
2022/09/25 06:51:30;;;;;;;5.90;2.33;;;15.80;99.90;;;;;;5140123;27;20406;-69
2022/09/25 06:53:56;;;;;;;5.32;2.28;;;17.40;99.90;;;;;;5134493;27;20043;-69
2022/09/25 06:56:22;;;;;;;6.18;2.28;;;18.70;99.90;;;;;;5135193;27;20043;-69
2022/09/25 06:58:47;;;;;;;6.90;2.47;;;19.90;99.90;;;;;;5150573;27;20038;-69
2022/09/25 07:01:13;;;;;;;6.85;2.20;;;20.90;99.90;;;;;;5155317;27;20038;-69
2022/09/25 07:03:46;;;;;;;7.65;1.90;;;21.50;99.90;;;;;;5155824;27;20034;-69
2022/09/25 07:06:24;;;;;;;9.90;1.92;;;20.30;99.90;;;;;;5137232;27;20416;-69
2022/09/25 07:08:51;;;;;;;7.00;2.03;;;19.10;99.90;;;;;;5137009;27;20053;-69
2022/09/25 07:11:19;;;;;;;6.07;2.03;;;18.20;99.90;;;;;;5119145;27;20087;-69
2022/09/25 07:13:46;;;;;;;5.82;1.98;;;17.20;99.90;;;;;;5154990;27;20039;-69
2022/09/25 07:16:14;;;;;;;6.35;1.83;;;16.50;99.90;;;;;;5155262;27;20046;-69
2022/09/25 07:18:40;;;;;;;7.50;2.00;;;15.90;99.90;;;;;;5155856;27;20046;-69
2022/09/25 07:21:29;;;;;;;6.82;2.15;;;15.40;99.90;;;;;;5155072;27;20115;-69
2022/09/25 07:23:57;;;;;;;7.32;2.60;;;15.10;99.90;;;;;;5154531;27;20042;-69
2022/09/25 07:26:28;;;;;;;7.70;2.17;;;15.20;99.90;;;;;;5154411;27;20051;-69
2022/09/25 07:29:02;;;;;;;6.78;2.10;;;17.70;99.90;;;;;;5153457;27;20035;-69
2022/09/25 07:31:30;;;;;;;8.07;2.03;;;18.20;99.90;;;;;;5154486;27;20052;-70
2022/09/25 07:33:58;;;;;;;7.82;1.92;;;17.50;99.90;;;;;;5154700;27;20076;-69
2022/09/25 07:36:23;;;;;;;4.80;1.70;;;16.80;99.90;;;;;;5154384;27;20047;-69
2022/09/25 07:38:50;;;;;;;6.80;1.80;;;16.10;99.90;;;;;;5139486;27;20502;-69
2022/09/25 07:41:17;;;;;;;6.78;2.08;;;15.50;99.90;;;;;;5126964;27;20043;-69
2022/09/25 07:43:43;;;;;;;5.20;2.00;;;15.10;99.90;;;;;;5154709;27;20042;-70
2022/09/25 07:46:10;;;;;;;8.25;2.20;;;14.70;99.90;;;;;;5136128;27;20046;-69
2022/09/25 07:48:35;;;;;;;7.43;2.00;;;14.50;99.90;;;;;;5154824;27;20069;-69
2022/09/25 07:51:03;;;;;;;9.23;2.00;;;14.40;99.90;;;;;;5154294;27;20034;-69
2022/09/25 07:53:28;;;;;;;5.55;2.40;;;14.40;99.90;;;;;;5136516;27;20130;-69
2022/09/25 07:55:59;;;;;;;6.45;1.85;;;14.20;99.90;;;;;;5136190;27;20451;-69
2022/09/25 07:58:25;;;;;;;5.75;1.90;;;14.20;99.90;;;;;;5154355;27;20034;-69
2022/09/25 08:00:53;;;;;;;6.13;1.67;;;14.70;99.90;;;;;;5134527;27;20538;-69
2022/09/25 08:03:19;;;;;;;11.27;1.80;;;14.60;99.90;;;;;;5154317;27;20054;-68
2022/09/25 08:05:44;;;;;;;6.55;1.40;;;14.80;99.90;;;;;;5152086;27;20068;-70
2022/09/25 08:08:10;;;;;;;6.28;1.92;;;15.10;99.90;;;;;;5133027;27;20035;-69
2022/09/25 08:10:36;;;;;;;3.65;1.35;;;15.30;99.90;;;;;;5136178;27;20034;-69
2022/09/25 08:13:01;;;;;;;10.60;1.60;;;15.60;99.90;;;;;;5154421;27;20042;-69
2022/09/25 08:15:27;;;;;;;4.05;1.60;;;15.70;99.90;;;;;;5149381;27;20035;-69
2022/09/25 08:17:53;;;;;;;4.78;1.35;;;16.00;99.90;;;;;;5132162;27;20078;-69
2022/09/25 08:20:19;;;;;;;4.93;1.20;;;16.20;99.90;;;;;;5097904;28;20039;-70
2022/09/25 08:22:46;;;;;;;4.05;1.40;;;16.40;99.90;;;;;;5097896;27;20039;-69
2022/09/25 08:25:12;;;;;;;3.35;1.35;;;16.50;99.90;;;;;;5133470;27;20047;-69
2022/09/25 08:27:42;;;;;;;4.57;1.33;;;16.70;99.90;;;;;;5133178;27;20043;-68
2022/09/25 08:30:09;;;;;;;3.58;1.30;;;16.80;99.90;;;;;;5132435;27;20054;-68
2022/09/25 08:32:35;;;;;;;2.72;1.15;;;16.90;99.90;;;;;;5114527;28;20054;-69
2022/09/25 08:35:02;;;;;;;5.88;1.80;;;16.80;99.90;;;;;;5145911;27;20050;-68
2022/09/25 08:37:29;;;;;;;3.95;1.30;;;16.60;99.90;;;;;;5150304;27;20057;-68
2022/09/25 08:39:55;;;;;;;6.18;1.45;;;16.40;99.90;;;;;;5169763;27;20053;-68
2022/09/25 08:42:34;;;;;;;6.13;1.52;;;16.00;99.90;;;;;;5153402;27;20402;-68
2022/09/25 08:50:36;;;;;;;7.13;1.60;;;15.10;99.90;;;;;;5126598;28;20380;-69
2022/09/25 08:53:06;;;;;;;3.92;1.40;;;14.80;99.90;;;;;;5113670;28;20115;-69
2022/09/25 08:58:28;;;;;;;5.50;1.58;;;14.40;99.90;;;;;;5132850;28;20054;-69
2022/09/25 09:00:59;;;;;;;4.22;1.52;;;14.10;99.90;;;;;;5147071;27;20052;-69
2022/09/25 09:03:29;;;;;;;4.85;1.40;;;13.90;99.90;;;;;;5147519;27;20425;-69
2022/09/25 09:06:10;;;;;;;3.97;1.35;;;13.90;99.90;;;;;;5152039;27;20045;-69
2022/09/25 09:08:40;;;;;;;3.60;1.40;;;13.80;99.90;;;;;;5152125;27;20076;-69
2022/09/25 09:11:32;;;;;;;4.28;1.40;;;13.70;99.90;;;;;;5153321;27;20038;-70
2022/09/25 09:14:08;;;;;;;4.88;1.40;;;13.60;99.90;;;;;;5129101;27;20042;-69
2022/09/25 09:16:46;;;;;;;4.13;1.30;;;13.60;99.90;;;;;;5153631;27;20039;-69
2022/09/25 09:19:12;;;;;;;5.35;1.60;;;13.50;99.90;;;;;;5151477;27;20062;-69
2022/09/25 09:21:45;;;;;;;4.63;1.42;;;13.50;99.90;;;;;;5138592;27;20069;-69
2022/09/25 09:24:34;;;;;;;4.78;1.60;;;13.60;99.90;;;;;;5156360;27;20057;-69
2022/09/25 09:27:20;;;;;;;4.28;1.73;;;13.50;99.90;;;;;;5145697;27;20050;-69
2022/09/25 09:30:12;;;;;;;2.60;1.45;;;13.60;99.90;;;;;;5156913;27;20043;-69
2022/09/25 09:32:55;;;;;;;6.07;1.77;;;13.60;99.90;;;;;;5157038;27;20405;-69
2022/09/25 09:35:30;;;;;;;5.38;1.90;;;13.60;99.90;;;;;;5138268;27;20047;-69
2022/09/25 09:38:25;;;;;;;5.13;1.70;;;13.70;99.90;;;;;;5155833;27;20046;-69
2022/09/25 09:41:07;;;;;;;4.55;2.75;;;13.70;99.90;;;;;;5133828;27;20172;-69
2022/09/25 09:44:20;;;;;;;3.63;1.90;;;13.80;99.90;;;;;;5118004;27;20402;-68
2022/09/25 09:47:16;;;;;;;5.38;2.10;;;13.80;99.90;;;;;;5114527;27;20066;-68
2022/09/25 09:49:53;;;;;;;7.20;2.10;;;13.80;99.90;;;;;;5136572;27;20050;-69
2022/09/25 09:52:31;;;;;;;5.80;1.75;;;13.90;99.90;;;;;;5135488;27;20110;-68
2022/09/25 09:55:02;;;;;;;6.30;1.88;;;13.90;99.90;;;;;;5135985;27;20039;-69
2022/09/25 09:57:32;;;;;;;5.25;2.13;;;14.00;99.90;;;;;;5136697;27;20126;-68
2022/09/25 10:00:06;;;;;;;6.47;1.67;;;14.10;99.90;;;;;;5120591;27;20047;-69
2022/09/25 10:03:00;;;;;;;4.22;1.73;;;14.20;99.90;;;;;;5137169;27;20380;-70
2022/09/25 10:05:52;;;;;;;5.22;2.03;;;14.40;99.90;;;;;;5132555;27;20100;-69
2022/09/25 10:08:17;;;;;;;4.82;2.10;;;14.60;99.90;;;;;;5129934;27;20046;-69
2022/09/25 10:10:54;;;;;;;7.38;1.90;;;14.80;99.90;;;;;;5137717;27;20043;-69
2022/09/25 10:13:24;;;;;;;5.53;2.10;;;15.00;99.90;;;;;;5156508;27;20068;-70
2022/09/25 10:15:52;;;;;;;6.70;1.77;;;15.10;99.90;;;;;;5155572;27;20031;-69
2022/09/25 10:18:21;;;;;;;5.25;1.70;;;15.30;99.90;;;;;;5138992;27;20100;-71
2022/09/25 10:21:20;;;;;;;4.90;1.63;;;15.40;99.90;;;;;;5131169;27;20103;-71
2022/09/25 10:23:45;;;;;;;8.13;1.70;;;15.50;99.90;;;;;;5129919;27;20038;-71
2022/09/25 10:26:40;;;;;;;6.60;1.70;;;15.60;99.90;;;;;;5153969;27;20521;-70
2022/09/25 10:29:24;;;;;;;4.85;1.75;;;15.60;99.90;;;;;;5111245;27;20119;-70
2022/09/25 10:32:02;;;;;;;4.63;1.80;;;15.80;99.90;;;;;;5140686;27;20034;-70
2022/09/25 10:34:30;;;;;;;5.20;1.90;;;16.00;99.90;;;;;;5134642;27;20055;-70
2022/09/25 10:36:56;;;;;;;5.93;1.52;;;16.20;99.90;;;;;;5157605;27;20074;-70
2022/09/25 10:39:39;;;;;;;4.57;1.60;;;16.40;99.90;;;;;;5156180;27;20063;-70
2022/09/25 10:42:26;;;;;;;5.90;1.38;;;16.50;99.90;;;;;;5155736;27;20043;-70
2022/09/25 10:44:54;;;;;;;4.70;1.45;;;16.80;99.90;;;;;;5155649;27;20076;-71
2022/09/25 10:50:25;;;;;;;3.72;1.17;;;17.70;99.90;;;;;;5156134;27;20370;-69
2022/09/25 10:52:58;;;;;;;4.38;1.48;;;18.10;99.90;;;;;;5119601;27;20099;-70
2022/09/25 10:55:40;;;;;;;6.40;1.35;;;18.40;99.90;;;;;;5136856;27;20371;-70
2022/09/25 10:58:23;;;;;;;4.65;1.27;;;18.50;99.90;;;;;;5156722;27;20043;-70
2022/09/25 11:00:48;;;;;;;5.00;1.40;;;18.80;99.90;;;;;;5154111;27;20053;-73
2022/09/25 11:03:31;;;;;;;5.07;1.30;;;19.00;99.90;;;;;;5152756;27;20776;-73
2022/09/25 11:06:08;;;;;;;2.03;1.10;;;19.10;99.90;;;;;;5151397;27;20528;-74
2022/09/25 11:08:40;;;;;;;3.22;1.27;;;19.30;99.90;;;;;;5138392;27;20039;-73
2022/09/25 11:11:08;;;;;;;3.35;1.20;;;19.50;99.90;;;;;;5132504;27;20472;-73
2022/09/25 11:13:49;;;;;;;2.53;0.65;;;19.70;99.90;;;;;;5133146;27;20039;-73
2022/09/25 11:16:16;;;;;;;2.55;0.98;;;19.80;99.90;;;;;;5150336;27;20050;-72
2022/09/25 11:18:48;;;;;;;2.97;1.05;;;19.80;99.90;;;;;;5133250;27;20106;-73
2022/09/25 11:21:31;;;;;;;3.33;1.08;;;20.00;99.90;;;;;;5148600;27;20046;-73
2022/09/25 11:24:25;;;;;;;2.88;1.20;;;20.30;99.90;;;;;;5130794;27;20497;-73
2022/09/25 11:27:09;;;;;;;2.28;0.93;;;20.50;99.90;;;;;;5151257;27;20442;-73
2022/09/25 11:29:53;;;;;;;3.25;1.10;;;20.90;99.90;;;;;;5150568;27;20042;-73
2022/09/25 11:32:43;;;;;;;3.88;1.10;;;21.10;99.90;;;;;;5149365;27;20043;-74
2022/09/25 11:35:33;;;;;;;4.50;1.15;;;21.40;99.90;;;;;;5150666;27;20579;-73
2022/09/25 11:41:10;;;;;;;4.97;1.30;;;21.70;99.90;;;;;;5149688;27;20043;-73
2022/09/25 11:41:11;;;;;;;3.27;1.10;;;21.90;99.90;;;;;;5129847;27;20480;-73
2022/09/25 11:44:08;;;;;;;3.80;1.00;;;22.10;99.90;;;;;;5130665;27;20103;-73
2022/09/25 11:46:49;;;;;;;3.97;1.00;;;22.40;99.90;;;;;;5151492;27;20050;-73
2022/09/25 11:49:25;;;;;;;3.08;1.05;;;22.20;99.70;;;;;;5151807;27;20046;-75
2022/09/25 11:52:01;;;;;;;3.47;0.95;;;22.30;99.90;;;;;;5150906;27;20452;-75
2022/09/25 11:54:51;;;;;;;3.38;1.10;;;22.50;99.90;;;;;;5132236;27;20057;-76
2022/09/25 11:57:45;;;;;;;3.35;1.17;;;22.60;99.40;;;;;;5143494;27;20035;-76
2022/09/25 12:00:45;;;;;;;4.95;1.20;;;22.90;98.70;;;;;;5130972;27;20057;-75
2022/09/25 12:03:14;;;;;;;4.50;1.60;;;22.80;99.90;;;;;;5095715;27;20059;-74
2022/09/25 12:06:15;;;;;;;2.17;1.10;;;22.90;99.70;;;;;;5126291;27;20039;-73
2022/09/25 12:09:09;;;;;;;4.50;1.60;;;23.10;99.30;;;;;;5151853;27;20118;-76
2022/09/25 12:11:52;;;;;;;5.65;1.40;;;23.30;97.60;;;;;;5132195;27;20436;-73
2022/09/25 12:14:33;;;;;;;6.30;2.08;;;22.80;98.40;;;;;;5115312;27;20059;-73
2022/09/25 12:17:34;;;;;;;5.75;1.30;;;22.60;98.70;;;;;;5141320;27;20090;-73
2022/09/25 12:20:18;;;;;;;4.57;1.10;;;22.50;98.70;;;;;;5153465;27;20039;-72
2022/09/25 12:23:11;;;;;;;3.78;1.23;;;22.50;98.50;;;;;;5132104;27;20047;-72
2022/09/25 12:25:56;;;;;;;4.82;1.50;;;22.80;98.40;;;;;;5114503;27;20055;-72
2022/09/25 12:29:04;;;;;;;5.30;1.40;;;22.60;98.90;;;;;;5080857;27;20161;-73
2022/09/25 12:31:38;;;;;;;2.05;1.00;;;22.40;99.00;;;;;;5118850;27;20460;-73
2022/09/25 12:34:10;;;;;;;2.45;1.13;;;22.40;99.10;;;;;;5133136;27;20059;-73
2022/09/25 12:36:55;;;;;;;3.13;1.10;;;23.30;97.80;;;;;;5126744;27;20184;-72
2022/09/25 12:39:36;;;;;;;1.88;0.93;;;24.20;96.80;;;;;;5153719;27;20125;-73
2022/09/25 12:42:17;;;;;;;4.30;1.30;;;24.10;95.90;;;;;;5134746;27;20046;-72
2022/09/25 12:45:13;;;;;;;2.50;1.13;;;23.70;95.90;;;;;;5135611;27;20043;-73
2022/09/25 12:47:50;;;;;;;5.65;1.77;;;23.00;96.30;;;;;;5136614;27;20055;-73
2022/09/25 12:50:19;;;;;;;5.07;1.20;;;22.30;96.70;;;;;;5117385;27;20375;-71
2022/09/25 12:52:54;;;;;;;4.28;1.63;;;21.90;97.30;;;;;;5152663;27;20082;-70
2022/09/25 12:55:25;;;;;;;4.28;1.35;;;21.70;98.10;;;;;;5157402;27;20031;-71
2022/09/25 12:58:39;;;;;;;4.65;1.25;;;21.50;98.40;;;;;;5158569;27;20417;-70
2022/09/25 13:01:30;;;;;;;3.92;1.17;;;21.30;98.40;;;;;;5083110;27;20058;-71
2022/09/25 13:04:05;;;;;;;5.10;1.45;;;21.00;98.10;;;;;;5156825;27;20046;-70
2022/09/25 13:06:51;;;;;;;4.57;1.30;;;20.70;98.40;;;;;;5157902;27;20129;-70
2022/09/25 13:09:33;;;;;;;3.03;1.10;;;20.70;98.70;;;;;;5157655;27;20391;-71
2022/09/25 13:12:09;;;;;;;4.43;1.20;;;20.60;99.00;;;;;;5157450;27;20053;-70
2022/09/25 13:14:45;;;;;;;3.03;1.02;;;20.70;98.90;;;;;;5157810;27;20043;-70
2022/09/25 13:17:12;;;;;;;4.05;1.02;;;20.70;98.60;;;;;;5139547;27;20372;-70
2022/09/25 13:19:38;;;;;;;3.35;1.13;;;20.70;98.20;;;;;;5139312;27;20471;-71
2022/09/25 13:22:16;;;;;;;4.65;1.10;;;20.60;97.80;;;;;;5157378;27;20038;-71
2022/09/25 13:25:04;;;;;;;4.60;1.10;;;20.60;97.10;;;;;;5157448;27;20122;-71
2022/09/25 13:27:42;;;;;;;3.17;1.20;;;20.30;97.60;;;;;;5124510;27;20049;-71
2022/09/25 13:30:20;;;;;;;3.38;1.13;;;20.30;97.70;;;;;;5139324;27;20047;-71
2022/09/25 13:32:52;;;;;;;6.05;1.50;;;20.30;97.40;;;;;;5157548;27;20078;-71
2022/09/25 13:35:19;;;;;;;2.75;1.02;;;20.20;97.70;;;;;;5135038;27;20055;-71
2022/09/25 13:37:47;;;;;;;4.70;1.35;;;20.30;97.80;;;;;;5136711;27;20400;-71
2022/09/25 13:43:25;;;;;;;4.68;1.40;;;20.40;97.50;;;;;;5135975;27;20130;-70